createdAt,value
2022-12-06T00:00:47.799Z,18.91
2022-12-06T00:03:15.202Z,18.88
2022-12-06T00:05:46.207Z,18.82
2022-12-06T00:10:57.710Z,18.81
2022-12-06T00:13:24.251Z,18.84
2022-12-06T00:15:51.567Z,18.82
2022-12-06T00:18:18.076Z,18.82
2022-12-06T00:20:44.614Z,18.86
2022-12-06T00:26:05.815Z,18.87
2022-12-06T00:28:34.210Z,18.86
2022-12-06T00:31:01.511Z,18.87
2022-12-06T00:33:28.814Z,18.86
2022-12-06T00:35:55.300Z,18.86
2022-12-06T00:41:17.484Z,18.86
2022-12-06T00:43:44.041Z,18.83
2022-12-06T00:46:11.361Z,18.83
2022-12-06T00:48:38.687Z,18.84
2022-12-06T00:51:05.186Z,18.86
2022-12-06T00:56:28.259Z,18.89
2022-12-06T00:58:54.843Z,18.84
2022-12-06T01:01:22.173Z,18.84
2022-12-06T01:03:49.527Z,18.87
2022-12-06T01:06:16.911Z,18.88
2022-12-06T01:11:29.317Z,18.90
2022-12-06T01:13:56.563Z,18.83
2022-12-06T01:16:23.108Z,18.88
2022-12-06T01:18:49.652Z,18.83
2022-12-06T01:21:16.954Z,18.87
2022-12-06T01:26:27.999Z,18.81
2022-12-06T01:28:55.235Z,18.86
2022-12-06T01:31:22.566Z,18.83
2022-12-06T01:33:49.062Z,18.88
2022-12-06T01:36:16.315Z,18.88
2022-12-06T01:41:38.451Z,18.82
2022-12-06T01:44:04.925Z,18.88
2022-12-06T01:46:31.408Z,18.92
2022-12-06T01:48:57.878Z,18.90
2022-12-06T01:51:25.121Z,18.87
2022-12-06T01:56:35.401Z,18.86
2022-12-06T01:59:01.878Z,18.82
2022-12-06T02:01:30.213Z,18.85
2022-12-06T02:03:56.658Z,18.84
2022-12-06T02:06:23.098Z,18.87
2022-12-06T02:08:49.506Z,18.83
2022-12-06T02:11:16.728Z,18.84
2022-12-06T02:13:43.289Z,18.80
2022-12-06T02:16:10.548Z,18.82
2022-12-06T02:18:36.930Z,18.84
2022-12-06T02:21:03.476Z,18.81
2022-12-06T02:23:29.862Z,18.86
2022-12-06T02:25:56.261Z,18.77
2022-12-06T02:28:23.565Z,18.86
2022-12-06T02:30:51.927Z,18.84
2022-12-06T02:33:19.164Z,18.83
2022-12-06T02:35:46.406Z,18.84
2022-12-06T02:38:13.329Z,18.80
2022-12-06T02:40:39.843Z,18.87
2022-12-06T02:43:07.124Z,18.84
2022-12-06T02:45:34.420Z,18.81
2022-12-06T02:48:00.874Z,18.87
2022-12-06T02:50:28.144Z,18.81
2022-12-06T02:52:55.390Z,18.84
2022-12-06T02:55:22.657Z,18.82
2022-12-06T02:57:49.882Z,18.83
2022-12-06T03:00:16.324Z,18.82
2022-12-06T03:02:43.610Z,18.80
2022-12-06T03:05:11.966Z,18.84
2022-12-06T03:07:39.262Z,18.80
2022-12-06T03:10:06.547Z,18.83
2022-12-06T03:12:33.084Z,18.81
2022-12-06T03:15:00.370Z,18.81
2022-12-06T03:17:28.714Z,18.79
2022-12-06T03:19:55.985Z,18.77
2022-12-06T03:22:23.245Z,18.76
2022-12-06T03:24:49.665Z,18.75
2022-12-06T03:30:01.937Z,18.78
2022-12-06T03:32:28.571Z,18.81
2022-12-06T03:34:56.898Z,18.76
2022-12-06T03:37:26.809Z,18.77
2022-12-06T03:39:54.101Z,18.78
2022-12-06T03:45:07.344Z,18.78
2022-12-06T03:47:35.663Z,18.77
2022-12-06T03:50:03.111Z,18.77
2022-12-06T03:52:29.643Z,18.78
2022-12-06T03:54:57.949Z,18.78
2022-12-06T04:00:10.521Z,18.79
2022-12-06T04:02:36.930Z,18.75
2022-12-06T04:05:03.449Z,18.77
2022-12-06T04:07:33.408Z,18.78
2022-12-06T04:09:59.920Z,18.75
2022-12-06T04:15:23.076Z,18.76
2022-12-06T04:17:51.426Z,18.77
2022-12-06T04:20:17.827Z,18.79
2022-12-06T04:22:46.118Z,18.79
2022-12-06T04:25:13.435Z,18.75
2022-12-06T04:30:26.779Z,18.76
2022-12-06T04:32:56.675Z,18.75
2022-12-06T04:35:23.147Z,18.78
2022-12-06T04:37:49.544Z,18.74
2022-12-06T04:40:16.774Z,18.75
2022-12-06T04:45:32.458Z,18.79
2022-12-06T04:48:00.758Z,18.78
2022-12-06T04:50:28.096Z,18.83
2022-12-06T04:52:54.548Z,18.77
2022-12-06T04:55:20.980Z,18.76
2022-12-06T05:00:43.685Z,18.76
2022-12-06T05:03:12.965Z,18.73
2022-12-06T05:05:39.433Z,18.77
2022-12-06T05:08:07.870Z,18.78
2022-12-06T05:10:37.068Z,18.80
2022-12-06T05:15:47.984Z,18.74
2022-12-06T05:18:14.422Z,18.81
2022-12-06T05:20:41.702Z,18.78
2022-12-06T05:23:08.939Z,18.78
2022-12-06T05:25:35.414Z,18.75
2022-12-06T05:30:56.358Z,18.76
2022-12-06T05:33:24.653Z,18.80
2022-12-06T05:35:52.944Z,18.76
2022-12-06T05:38:22.919Z,18.80
2022-12-06T05:40:52.844Z,18.78
2022-12-06T05:46:03.572Z,18.91
2022-12-06T05:48:31.890Z,18.79
2022-12-06T05:50:59.194Z,18.79
2022-12-06T05:53:25.644Z,18.74
2022-12-06T05:55:52.899Z,18.76
2022-12-06T06:01:16.025Z,18.78
2022-12-06T06:03:47.412Z,18.79
2022-12-06T06:06:14.053Z,18.75
2022-12-06T06:08:40.516Z,18.88
2022-12-06T06:11:07.040Z,18.87
2022-12-06T06:16:19.493Z,18.81
2022-12-06T06:18:45.966Z,18.82
2022-12-06T06:21:12.436Z,18.86
2022-12-06T06:23:38.902Z,18.78
2022-12-06T06:26:06.290Z,18.89
2022-12-06T06:31:26.813Z,18.79
2022-12-06T06:33:53.659Z,18.86
2022-12-06T06:36:21.257Z,18.86
2022-12-06T06:38:47.709Z,18.87
2022-12-06T06:41:15.394Z,18.89
2022-12-06T06:46:26.738Z,18.95
2022-12-06T06:48:53.288Z,18.91
2022-12-06T06:51:20.671Z,18.95
2022-12-06T06:53:47.350Z,18.91
2022-12-06T06:56:14.106Z,19.00
2022-12-06T07:01:26.000Z,18.99
2022-12-06T07:03:52.741Z,18.97
2022-12-06T07:06:19.396Z,18.99
2022-12-06T07:08:46.799Z,19.00
2022-12-06T07:11:13.234Z,19.02
2022-12-06T07:16:34.579Z,19.03
2022-12-06T07:19:06.293Z,19.08
2022-12-06T07:21:36.326Z,19.06
2022-12-06T07:24:02.805Z,19.00
2022-12-06T07:26:29.271Z,19.05
2022-12-06T07:31:49.395Z,18.99
2022-12-06T07:34:16.802Z,18.93
2022-12-06T07:36:43.250Z,18.94
2022-12-06T07:39:14.473Z,18.86
2022-12-06T07:41:42.441Z,18.91
2022-12-06T07:47:03.711Z,18.93
2022-12-06T07:49:31.082Z,18.90
2022-12-06T07:51:57.572Z,18.86
2022-12-06T07:54:24.826Z,18.83
2022-12-06T07:56:51.298Z,18.82
2022-12-06T08:02:01.566Z,18.78
2022-12-06T08:04:28.163Z,18.78
2022-12-06T08:06:54.649Z,18.82
2022-12-06T08:09:21.920Z,17.66
2022-12-06T08:11:49.247Z,17.33
2022-12-06T08:14:15.723Z,17.87
2022-12-06T08:16:42.191Z,18.06
2022-12-06T08:19:08.794Z,18.07
2022-12-06T08:21:36.189Z,18.04
2022-12-06T08:24:03.610Z,18.01
2022-12-06T08:26:30.141Z,17.98
2022-12-06T08:28:56.588Z,17.90
2022-12-06T08:31:23.109Z,17.84
2022-12-06T08:33:49.649Z,17.81
2022-12-06T08:36:16.106Z,17.88
2022-12-06T08:38:43.492Z,17.91
2022-12-06T08:41:10.866Z,18.00
2022-12-06T08:43:38.271Z,18.08
2022-12-06T08:46:05.738Z,18.27
2022-12-06T08:48:32.291Z,18.07
2022-12-06T08:50:59.709Z,18.14
2022-12-06T08:53:26.156Z,18.01
2022-12-06T08:55:56.113Z,17.94
2022-12-06T08:58:25.342Z,17.94
2022-12-06T09:00:51.829Z,17.92
2022-12-06T09:03:19.212Z,18.03
2022-12-06T09:05:46.693Z,17.87
2022-12-06T09:08:13.207Z,17.30
2022-12-06T09:10:39.757Z,17.96
2022-12-06T09:13:07.174Z,17.94
2022-12-06T09:15:33.693Z,18.09
2022-12-06T09:18:01.097Z,18.12
2022-12-06T09:20:27.525Z,18.19
2022-12-06T09:22:54.022Z,18.07
2022-12-06T09:25:21.369Z,17.97
2022-12-06T09:27:48.789Z,17.89
2022-12-06T09:30:16.137Z,17.94
2022-12-06T09:35:26.631Z,17.92
2022-12-06T09:37:53.080Z,17.88
2022-12-06T09:40:20.445Z,17.94
2022-12-06T09:42:47.832Z,17.90
2022-12-06T09:45:14.296Z,17.92
2022-12-06T09:50:35.759Z,17.81
2022-12-06T09:53:04.130Z,17.82
2022-12-06T09:55:30.926Z,17.84
2022-12-06T09:57:57.442Z,17.87
2022-12-06T10:00:24.850Z,17.96
2022-12-06T10:05:35.990Z,17.85
2022-12-06T10:08:02.548Z,16.34
2022-12-06T10:10:29.096Z,15.96
2022-12-06T10:12:56.486Z,15.50
2022-12-06T10:15:22.996Z,15.22
2022-12-06T10:20:34.794Z,17.16
2022-12-06T10:23:01.242Z,17.67
2022-12-06T10:25:27.710Z,17.95
2022-12-06T10:27:54.221Z,18.02
2022-12-06T10:30:20.700Z,18.06
2022-12-06T10:35:42.080Z,18.06
2022-12-06T10:38:08.585Z,18.11
2022-12-06T10:40:35.046Z,18.24
2022-12-06T10:43:02.507Z,18.40
2022-12-06T10:45:29.025Z,18.58
2022-12-06T10:50:51.114Z,18.73
2022-12-06T10:53:18.570Z,18.77
2022-12-06T10:55:45.039Z,18.63
2022-12-06T10:58:11.520Z,18.57
2022-12-06T11:00:38.138Z,18.55
2022-12-06T11:05:49.511Z,18.50
2022-12-06T11:08:17.005Z,18.52
2022-12-06T11:10:43.569Z,18.50
2022-12-06T11:13:10.018Z,18.50
2022-12-06T11:15:37.453Z,18.51
2022-12-06T11:20:50.627Z,18.53
2022-12-06T11:23:18.031Z,18.54
2022-12-06T11:25:44.566Z,18.54
2022-12-06T11:28:11.972Z,18.58
2022-12-06T11:30:38.454Z,18.59
2022-12-06T11:35:58.817Z,18.58
2022-12-06T11:38:26.218Z,18.59
2022-12-06T11:40:52.671Z,18.60
2022-12-06T11:43:19.164Z,18.60
2022-12-06T11:45:45.628Z,18.63
2022-12-06T11:51:07.153Z,18.64
2022-12-06T11:53:33.646Z,18.66
2022-12-06T11:56:01.118Z,18.65
2022-12-06T11:58:28.605Z,18.66
2022-12-06T12:00:56.037Z,18.70
2022-12-06T12:03:22.558Z,18.69
2022-12-06T12:05:49.082Z,18.75
2022-12-06T12:08:16.581Z,18.69
2022-12-06T12:10:44.142Z,18.59
2022-12-06T12:13:11.580Z,18.58
2022-12-06T12:15:38.073Z,18.57
2022-12-06T12:18:04.550Z,18.60
2022-12-06T12:20:32.322Z,18.57
2022-12-06T12:22:59.724Z,18.57
2022-12-06T12:25:26.591Z,18.55
2022-12-06T12:27:53.406Z,18.54
2022-12-06T12:30:19.875Z,18.54
2022-12-06T12:32:46.363Z,18.54
2022-12-06T12:35:13.751Z,18.59
2022-12-06T12:37:41.186Z,18.62
2022-12-06T12:40:10.790Z,18.64
2022-12-06T12:42:37.415Z,18.71
2022-12-06T12:45:04.804Z,18.25
2022-12-06T12:47:32.196Z,17.79
2022-12-06T12:49:58.713Z,17.49
2022-12-06T12:52:25.233Z,17.34
2022-12-06T12:54:51.773Z,17.31
2022-12-06T12:57:19.169Z,17.20
2022-12-06T12:59:45.652Z,17.06
2022-12-06T13:02:13.207Z,17.05
2022-12-06T19:39:03.285Z,19.10
2022-12-06T19:41:29.785Z,18.98
2022-12-06T19:43:57.142Z,19.13
2022-12-06T19:46:24.478Z,19.19
2022-12-06T19:48:50.953Z,19.21
2022-12-06T19:51:17.387Z,19.14
2022-12-06T19:53:45.093Z,19.10
2022-12-06T19:56:12.648Z,19.37
2022-12-06T19:58:39.980Z,19.36
2022-12-06T20:01:06.522Z,19.35
2022-12-06T20:03:32.996Z,19.36
2022-12-06T20:06:00.302Z,19.44
2022-12-06T20:08:27.645Z,19.27
2022-12-06T20:10:56.271Z,19.25
2022-12-06T20:13:22.945Z,19.22
2022-12-06T20:15:49.588Z,19.16
2022-12-06T20:18:16.102Z,19.40
2022-12-06T20:20:43.601Z,19.29
2022-12-06T20:23:10.697Z,19.35
2022-12-06T20:25:38.401Z,19.27
2022-12-06T20:28:10.411Z,19.14
2022-12-06T20:30:40.733Z,19.08
2022-12-06T20:33:08.404Z,19.01
2022-12-06T20:35:34.912Z,19.11
2022-12-06T20:38:02.473Z,19.02
2022-12-06T20:40:31.720Z,19.02
2022-12-06T20:42:58.402Z,19.07
2022-12-06T20:45:25.926Z,19.08
2022-12-06T20:47:53.359Z,19.10
2022-12-06T20:50:20.097Z,19.05
2022-12-06T20:52:46.591Z,19.08
2022-12-06T20:55:14.158Z,19.06
2022-12-06T20:57:40.751Z,19.04
2022-12-06T21:00:07.988Z,19.02
2022-12-06T21:02:35.615Z,19.27
2022-12-06T21:05:02.137Z,19.04
2022-12-06T21:07:29.533Z,19.05
2022-12-06T21:09:57.020Z,18.94
2022-12-06T21:12:24.454Z,19.01
2022-12-06T21:14:51.877Z,18.90
2022-12-06T21:17:18.317Z,18.92
2022-12-06T21:19:45.684Z,18.89
2022-12-06T21:22:13.084Z,18.84
2022-12-06T21:24:39.584Z,18.88
2022-12-06T21:27:06.135Z,18.92
2022-12-06T21:29:33.504Z,19.01
2022-12-06T21:31:59.970Z,18.87
2022-12-06T21:34:26.445Z,18.89
2022-12-06T21:36:52.907Z,18.91
2022-12-06T21:39:20.248Z,18.86
2022-12-06T21:41:46.764Z,18.96
2022-12-06T21:44:13.291Z,18.84
2022-12-06T21:46:40.623Z,18.86
2022-12-06T21:49:07.098Z,18.79
